sensor_id;sensor_type;location;lat;lon;timestamp;pressure;altitude;pressure_sealevel;temperature;humidity
19108;BME280;9686;48.832;9.126;2023-02-01T00:01:46;98816.06;;;8.15;100.00
19108;BME280;9686;48.832;9.126;2023-02-01T00:04:11;98814.50;;;8.30;100.00
19108;BME280;9686;48.832;9.126;2023-02-01T00:06:37;98816.03;;;8.13;100.00
19108;BME280;9686;48.832;9.126;2023-02-01T00:09:02;98798.56;;;8.01;100.00
19108;BME280;9686;48.832;9.126;2023-02-01T00:11:28;98795.84;;;7.94;100.00
19108;BME280;9686;48.832;9.126;2023-02-01T00:13:53;98800.22;;;7.96;100.00
19108;BME280;9686;48.832;9.126;2023-02-01T00:16:22;98797.81;;;8.09;100.00
19108;BME280;9686;48.832;9.126;2023-02-01T00:18:49;98799.59;;;8.13;100.00
19108;BME280;9686;48.832;9.126;2023-02-01T00:21:17;98806.44;;;8.08;100.00
19108;BME280;9686;48.832;9.126;2023-02-01T00:23:43;98803.88;;;8.09;100.00
19108;BME280;9686;48.832;9.126;2023-02-01T00:26:17;98798.59;;;8.06;100.00
19108;BME280;9686;48.832;9.126;2023-02-01T00:28:43;98801.97;;;7.99;100.00
19108;BME280;9686;48.832;9.126;2023-02-01T00:31:08;98804.50;;;7.93;100.00
19108;BME280;9686;48.832;9.126;2023-02-01T00:33:34;98790.91;;;8.12;100.00
19108;BME280;9686;48.832;9.126;2023-02-01T00:36:01;98790.66;;;7.94;100.00
19108;BME280;9686;48.832;9.126;2023-02-01T00:38:27;98789.84;;;7.96;100.00
19108;BME280;9686;48.832;9.126;2023-02-01T00:40:53;98787.09;;;7.86;100.00
19108;BME280;9686;48.832;9.126;2023-02-01T00:43:19;98796.59;;;7.84;100.00
19108;BME280;9686;48.832;9.126;2023-02-01T00:45:45;98800.84;;;7.80;100.00
19108;BME280;9686;48.832;9.126;2023-02-01T00:48:11;98793.88;;;7.76;100.00
19108;BME280;9686;48.832;9.126;2023-02-01T00:50:41;98792.09;;;7.73;100.00
19108;BME280;9686;48.832;9.126;2023-02-01T00:53:06;98792.06;;;7.72;100.00
19108;BME280;9686;48.832;9.126;2023-02-01T00:55:31;98788.81;;;7.85;100.00
19108;BME280;9686;48.832;9.126;2023-02-01T00:57:57;98782.59;;;7.74;100.00
19108;BME280;9686;48.832;9.126;2023-02-01T01:00:22;98779.28;;;7.83;100.00
19108;BME280;9686;48.832;9.126;2023-02-01T01:02:48;98769.84;;;7.89;100.00
19108;BME280;9686;48.832;9.126;2023-02-01T01:05:13;98771.53;;;7.86;100.00
19108;BME280;9686;48.832;9.126;2023-02-01T01:07:38;98769.78;;;7.85;100.00
19108;BME280;9686;48.832;9.126;2023-02-01T01:10:04;98756.78;;;7.83;100.00
19108;BME280;9686;48.832;9.126;2023-02-01T01:12:30;98761.25;;;7.93;100.00
19108;BME280;9686;48.832;9.126;2023-02-01T01:14:55;98749.72;;;7.73;100.00
19108;BME280;9686;48.832;9.126;2023-02-01T01:17:20;98757.47;;;7.71;100.00
19108;BME280;9686;48.832;9.126;2023-02-01T01:19:46;98754.78;;;7.64;100.00
19108;BME280;9686;48.832;9.126;2023-02-01T01:22:12;98754.66;;;7.55;100.00
19108;BME280;9686;48.832;9.126;2023-02-01T01:24:37;98751.44;;;7.72;100.00
19108;BME280;9686;48.832;9.126;2023-02-01T01:27:03;98759.41;;;7.85;100.00
19108;BME280;9686;48.832;9.126;2023-02-01T01:29:28;98762.19;;;8.00;100.00
19108;BME280;9686;48.832;9.126;2023-02-01T01:31:53;98769.75;;;7.82;100.00
19108;BME280;9686;48.832;9.126;2023-02-01T01:34:18;98769.00;;;7.90;100.00
19108;BME280;9686;48.832;9.126;2023-02-01T01:36:44;98768.16;;;7.93;100.00
19108;BME280;9686;48.832;9.126;2023-02-01T01:39:09;98766.44;;;7.93;100.00
19108;BME280;9686;48.832;9.126;2023-02-01T01:41:34;98762.31;;;8.09;100.00
19108;BME280;9686;48.832;9.126;2023-02-01T01:44:02;98754.78;;;8.32;100.00
19108;BME280;9686;48.832;9.126;2023-02-01T01:46:36;98757.38;;;8.30;100.00
19108;BME280;9686;48.832;9.126;2023-02-01T01:49:17;98758.94;;;8.16;100.00
19108;BME280;9686;48.832;9.126;2023-02-01T01:51:51;98759.91;;;8.24;100.00
19108;BME280;9686;48.832;9.126;2023-02-01T01:54:24;98749.56;;;8.30;100.00
19108;BME280;9686;48.832;9.126;2023-02-01T01:56:55;98750.47;;;8.32;100.00
19108;BME280;9686;48.832;9.126;2023-02-01T01:59:23;98748.75;;;8.33;100.00
19108;BME280;9686;48.832;9.126;2023-02-01T02:01:50;98743.66;;;8.39;100.00
19108;BME280;9686;48.832;9.126;2023-02-01T02:04:16;98743.03;;;8.61;100.00
19108;BME280;9686;48.832;9.126;2023-02-01T02:06:50;98743.81;;;8.54;100.00
19108;BME280;9686;48.832;9.126;2023-02-01T02:09:16;98750.75;;;8.57;100.00
19108;BME280;9686;48.832;9.126;2023-02-01T02:11:42;98744.78;;;8.61;100.00
19108;BME280;9686;48.832;9.126;2023-02-01T02:14:09;98750.91;;;8.68;100.00
19108;BME280;9686;48.832;9.126;2023-02-01T02:19:37;98757.75;;;8.59;100.00
19108;BME280;9686;48.832;9.126;2023-02-01T02:41:48;98733.34;;;8.47;100.00
19108;BME280;9686;48.832;9.126;2023-02-01T02:44:47;98727.22;;;8.39;100.00
19108;BME280;9686;48.832;9.126;2023-02-01T02:47:55;98724.75;;;8.52;100.00
19108;BME280;9686;48.832;9.126;2023-02-01T02:50:47;98719.53;;;8.52;100.00
19108;BME280;9686;48.832;9.126;2023-02-01T02:53:58;98714.41;;;8.58;100.00
19108;BME280;9686;48.832;9.126;2023-02-01T02:56:43;98716.97;;;8.55;100.00
19108;BME280;9686;48.832;9.126;2023-02-01T02:59:28;98716.22;;;8.64;100.00
19108;BME280;9686;48.832;9.126;2023-02-01T03:02:14;98720.44;;;8.56;100.00
19108;BME280;9686;48.832;9.126;2023-02-01T03:04:59;98713.47;;;8.50;100.00
19108;BME280;9686;48.832;9.126;2023-02-01T03:08:03;98710.75;;;8.37;100.00
19108;BME280;9686;48.832;9.126;2023-02-01T03:10:50;98722.06;;;8.43;100.00
19108;BME280;9686;48.832;9.126;2023-02-01T03:13:59;98713.38;;;8.41;100.00
19108;BME280;9686;48.832;9.126;2023-02-01T03:16:40;98717.84;;;8.57;100.00
19108;BME280;9686;48.832;9.126;2023-02-01T03:22:21;98687.34;;;8.33;100.00
19108;BME280;9686;48.832;9.126;2023-02-01T03:27:21;98665.72;;;8.36;100.00
19108;BME280;9686;48.832;9.126;2023-02-01T03:29:54;98676.13;;;8.39;100.00
19108;BME280;9686;48.832;9.126;2023-02-01T03:32:21;98661.41;;;8.40;100.00
19108;BME280;9686;48.832;9.126;2023-02-01T03:34:47;98649.88;;;8.16;100.00
19108;BME280;9686;48.832;9.126;2023-02-01T03:37:19;98660.31;;;8.22;100.00
19108;BME280;9686;48.832;9.126;2023-02-01T03:42:22;98642.38;;;8.41;100.00
19108;BME280;9686;48.832;9.126;2023-02-01T03:45:07;98671.88;;;8.47;100.00
19108;BME280;9686;48.832;9.126;2023-02-01T03:47:40;98664.88;;;8.42;100.00
19108;BME280;9686;48.832;9.126;2023-02-01T03:50:09;98660.53;;;8.39;100.00
19108;BME280;9686;48.832;9.126;2023-02-01T03:52:48;98664.91;;;8.43;100.00
19108;BME280;9686;48.832;9.126;2023-02-01T03:55:18;98653.56;;;8.33;100.00
19108;BME280;9686;48.832;9.126;2023-02-01T03:58:09;98664.75;;;8.32;100.00
19108;BME280;9686;48.832;9.126;2023-02-01T04:00:37;98656.19;;;8.37;100.00
19108;BME280;9686;48.832;9.126;2023-02-01T04:03:04;98653.59;;;8.37;100.00
19108;BME280;9686;48.832;9.126;2023-02-01T04:05:30;98666.59;;;8.40;100.00
19108;BME280;9686;48.832;9.126;2023-02-01T04:07:56;98664.81;;;8.34;100.00
19108;BME280;9686;48.832;9.126;2023-02-01T04:10:22;98671.03;;;8.50;100.00
19108;BME280;9686;48.832;9.126;2023-02-01T04:12:47;98673.69;;;8.57;100.00
19108;BME280;9686;48.832;9.126;2023-02-01T04:15:12;98683.03;;;8.36;100.00
19108;BME280;9686;48.832;9.126;2023-02-01T04:17:38;98674.50;;;8.52;100.00
19108;BME280;9686;48.832;9.126;2023-02-01T04:20:03;98683.16;;;8.49;100.00
19108;BME280;9686;48.832;9.126;2023-02-01T04:22:30;98691.78;;;8.48;100.00
19108;BME280;9686;48.832;9.126;2023-02-01T04:24:55;98696.06;;;8.43;100.00
19108;BME280;9686;48.832;9.126;2023-02-01T04:27:20;98681.44;;;8.54;100.00
19108;BME280;9686;48.832;9.126;2023-02-01T04:29:46;98673.84;;;8.74;100.00
19108;BME280;9686;48.832;9.126;2023-02-01T04:32:14;98680.47;;;8.40;100.00
19108;BME280;9686;48.832;9.126;2023-02-01T04:34:41;98671.75;;;8.33;100.00
19108;BME280;9686;48.832;9.126;2023-02-01T04:37:06;98675.06;;;8.25;100.00
19108;BME280;9686;48.832;9.126;2023-02-01T04:39:32;98675.06;;;8.25;100.00
19108;BME280;9686;48.832;9.126;2023-02-01T04:41:57;98675.31;;;8.46;100.00
19108;BME280;9686;48.832;9.126;2023-02-01T04:44:23;98676.97;;;8.38;100.00
19108;BME280;9686;48.832;9.126;2023-02-01T04:46:48;98683.00;;;8.34;100.00
19108;BME280;9686;48.832;9.126;2023-02-01T04:49:14;98678.88;;;8.56;100.00
19108;BME280;9686;48.832;9.126;2023-02-01T04:51:40;98672.75;;;8.49;100.00
19108;BME280;9686;48.832;9.126;2023-02-01T04:54:05;98662.50;;;8.63;100.00
19108;BME280;9686;48.832;9.126;2023-02-01T04:56:31;98640.72;;;8.52;100.00
19108;BME280;9686;48.832;9.126;2023-02-01T04:58:56;98649.09;;;8.26;100.00
19108;BME280;9686;48.832;9.126;2023-02-01T05:01:22;98649.34;;;8.45;100.00
19108;BME280;9686;48.832;9.126;2023-02-01T05:03:49;98658.06;;;8.54;100.00
19108;BME280;9686;48.832;9.126;2023-02-01T05:06:14;98671.03;;;8.51;100.00
19108;BME280;9686;48.832;9.126;2023-02-01T05:08:40;98680.56;;;8.51;100.00
19108;BME280;9686;48.832;9.126;2023-02-01T05:11:05;98683.09;;;8.45;100.00
19108;BME280;9686;48.832;9.126;2023-02-01T05:13:31;98677.97;;;8.52;100.00
19108;BME280;9686;48.832;9.126;2023-02-01T05:16:15;98685.81;;;8.57;100.00
19108;BME280;9686;48.832;9.126;2023-02-01T05:18:40;98673.75;;;8.62;100.00
19108;BME280;9686;48.832;9.126;2023-02-01T05:21:06;98666.00;;;8.70;100.00
19108;BME280;9686;48.832;9.126;2023-02-01T05:23:31;98665.16;;;8.69;100.00
19108;BME280;9686;48.832;9.126;2023-02-01T05:26:00;98676.34;;;8.62;100.00
19108;BME280;9686;48.832;9.126;2023-02-01T05:28:27;98669.47;;;8.69;100.00
19108;BME280;9686;48.832;9.126;2023-02-01T05:30:52;98670.22;;;8.58;100.00
19108;BME280;9686;48.832;9.126;2023-02-01T05:33:18;98659.91;;;8.63;100.00
19108;BME280;9686;48.832;9.126;2023-02-01T05:35:43;98672.16;;;8.81;100.00
19108;BME280;9686;48.832;9.126;2023-02-01T05:38:08;98678.00;;;8.55;100.00
19108;BME280;9686;48.832;9.126;2023-02-01T05:40:34;98665.09;;;8.63;100.00
19108;BME280;9686;48.832;9.126;2023-02-01T05:42:59;98675.53;;;8.69;100.00
19108;BME280;9686;48.832;9.126;2023-02-01T05:45:24;98673.81;;;8.70;100.00
19108;BME280;9686;48.832;9.126;2023-02-01T05:47:49;98679.88;;;8.72;100.00
19108;BME280;9686;48.832;9.126;2023-02-01T05:50:16;98673.75;;;8.62;100.00
19108;BME280;9686;48.832;9.126;2023-02-01T05:52:41;98676.47;;;8.76;100.00
19108;BME280;9686;48.832;9.126;2023-02-01T05:55:07;98674.63;;;8.64;100.00
19108;BME280;9686;48.832;9.126;2023-02-01T05:57:32;98676.34;;;8.60;100.00
19108;BME280;9686;48.832;9.126;2023-02-01T05:59:57;98665.88;;;8.57;100.00
19108;BME280;9686;48.832;9.126;2023-02-01T06:02:23;98659.75;;;8.48;100.00
19108;BME280;9686;48.832;9.126;2023-02-01T06:04:49;98662.28;;;8.40;100.00
19108;BME280;9686;48.832;9.126;2023-02-01T06:07:14;98669.41;;;8.61;100.00
19108;BME280;9686;48.832;9.126;2023-02-01T06:09:40;98649.50;;;8.61;100.00
19108;BME280;9686;48.832;9.126;2023-02-01T06:12:05;98651.97;;;8.51;100.00
19108;BME280;9686;48.832;9.126;2023-02-01T06:14:31;98665.19;;;8.75;100.00
19108;BME280;9686;48.832;9.126;2023-02-01T06:16:56;98659.16;;;8.78;100.00
19108;BME280;9686;48.832;9.126;2023-02-01T06:19:22;98665.22;;;8.78;100.00
19108;BME280;9686;48.832;9.126;2023-02-01T06:21:48;98663.63;;;8.97;100.00
19108;BME280;9686;48.832;9.126;2023-02-01T06:24:14;98668.78;;;8.89;100.00
19108;BME280;9686;48.832;9.126;2023-02-01T06:26:39;98679.22;;;8.95;100.00
19108;BME280;9686;48.832;9.126;2023-02-01T06:29:06;98681.00;;;9.01;100.00
19108;BME280;9686;48.832;9.126;2023-02-01T06:31:32;98683.44;;;8.84;100.00
19108;BME280;9686;48.832;9.126;2023-02-01T06:33:57;98673.13;;;8.89;100.00
19108;BME280;9686;48.832;9.126;2023-02-01T06:36:22;98674.19;;;9.17;100.00
19108;BME280;9686;48.832;9.126;2023-02-01T06:38:48;98684.44;;;8.95;100.00
19108;BME280;9686;48.832;9.126;2023-02-01T06:41:13;98678.34;;;8.92;100.00
19108;BME280;9686;48.832;9.126;2023-02-01T06:43:39;98683.53;;;8.90;100.00
19108;BME280;9686;48.832;9.126;2023-02-01T06:46:07;98672.34;;;9.05;100.00
19108;BME280;9686;48.832;9.126;2023-02-01T06:48:33;98666.28;;;9.05;100.00
19108;BME280;9686;48.832;9.126;2023-02-01T06:50:59;98654.06;;;8.90;100.00
19108;BME280;9686;48.832;9.126;2023-02-01T06:53:24;98665.38;;;9.00;100.00
19108;BME280;9686;48.832;9.126;2023-02-01T06:58:18;98692.22;;;8.92;100.00
19108;BME280;9686;48.832;9.126;2023-02-01T07:00:43;98683.63;;;9.04;100.00
19108;BME280;9686;48.832;9.126;2023-02-01T07:03:08;98691.56;;;9.21;100.00
19108;BME280;9686;48.832;9.126;2023-02-01T07:05:34;98697.38;;;8.86;100.00
19108;BME280;9686;48.832;9.126;2023-02-01T07:07:59;98714.78;;;8.98;100.00
19108;BME280;9686;48.832;9.126;2023-02-01T07:10:24;98708.78;;;9.08;100.00
19108;BME280;9686;48.832;9.126;2023-02-01T07:12:49;98722.66;;;9.10;100.00
19108;BME280;9686;48.832;9.126;2023-02-01T07:15:15;98725.34;;;9.15;100.00
19108;BME280;9686;48.832;9.126;2023-02-01T07:17:40;98730.47;;;9.09;98.49
19108;BME280;9686;48.832;9.126;2023-02-01T07:20:06;98729.75;;;9.26;97.83
19108;BME280;9686;48.832;9.126;2023-02-01T07:22:31;98732.34;;;9.26;96.72
19108;BME280;9686;48.832;9.126;2023-02-01T07:24:57;98722.75;;;9.18;97.77
19108;BME280;9686;48.832;9.126;2023-02-01T07:27:22;98729.75;;;9.30;96.09
19108;BME280;9686;48.832;9.126;2023-02-01T07:29:50;98726.28;;;9.29;96.31
19108;BME280;9686;48.832;9.126;2023-02-01T07:32:15;98736.53;;;9.08;97.71
19108;BME280;9686;48.832;9.126;2023-02-01T07:34:43;98735.63;;;9.03;97.95
19108;BME280;9686;48.832;9.126;2023-02-01T07:37:08;98732.19;;;9.08;97.09
19108;BME280;9686;48.832;9.126;2023-02-01T07:39:33;98739.25;;;9.21;96.16
19108;BME280;9686;48.832;9.126;2023-02-01T07:41:59;98733.13;;;9.15;96.38
19108;BME280;9686;48.832;9.126;2023-02-01T07:44:24;98735.72;;;9.13;96.05
19108;BME280;9686;48.832;9.126;2023-02-01T07:46:50;98734.94;;;9.23;94.88
19108;BME280;9686;48.832;9.126;2023-02-01T07:49:15;98733.13;;;9.15;95.74
19108;BME280;9686;48.832;9.126;2023-02-01T07:51:42;98733.13;;;9.12;95.57
19108;BME280;9686;48.832;9.126;2023-02-01T07:54:07;98730.59;;;9.22;95.49
19108;BME280;9686;48.832;9.126;2023-02-01T07:56:33;98726.94;;;9.02;96.55
19108;BME280;9686;48.832;9.126;2023-02-01T07:58:58;98730.53;;;9.13;96.77
19108;BME280;9686;48.832;9.126;2023-02-01T08:01:27;98717.63;;;9.28;96.85
19108;BME280;9686;48.832;9.126;2023-02-01T08:03:57;98711.56;;;9.33;95.39
19108;BME280;9686;48.832;9.126;2023-02-01T08:06:27;98718.38;;;9.12;95.92
19108;BME280;9686;48.832;9.126;2023-02-01T08:08:53;98715.84;;;9.23;96.14
19108;BME280;9686;48.832;9.126;2023-02-01T08:11:20;98722.78;;;9.21;94.82
19108;BME280;9686;48.832;9.126;2023-02-01T08:13:46;98708.19;;;9.40;93.99
19108;BME280;9686;48.832;9.126;2023-02-01T08:16:12;98696.81;;;9.30;94.20
19108;BME280;9686;48.832;9.126;2023-02-01T08:18:38;98699.50;;;9.38;93.64
19108;BME280;9686;48.832;9.126;2023-02-01T08:21:10;98702.09;;;9.39;92.48
19108;BME280;9686;48.832;9.126;2023-02-01T08:23:36;98698.59;;;9.36;92.34
19108;BME280;9686;48.832;9.126;2023-02-01T08:26:14;98702.13;;;9.44;91.54
19108;BME280;9686;48.832;9.126;2023-02-01T08:28:42;98696.06;;;9.48;90.19
19108;BME280;9686;48.832;9.126;2023-02-01T08:31:11;98699.59;;;9.57;89.12
19108;BME280;9686;48.832;9.126;2023-02-01T08:33:37;98709.97;;;9.54;88.27
19108;BME280;9686;48.832;9.126;2023-02-01T08:36:04;98723.16;;;9.80;86.74
19108;BME280;9686;48.832;9.126;2023-02-01T08:38:30;98721.44;;;9.87;85.78
19108;BME280;9686;48.832;9.126;2023-02-01T08:40:55;98719.69;;;9.84;83.17
19108;BME280;9686;48.832;9.126;2023-02-01T08:43:21;98717.19;;;10.01;82.58
19108;BME280;9686;48.832;9.126;2023-02-01T08:45:46;98729.19;;;9.73;82.33
19108;BME280;9686;48.832;9.126;2023-02-01T08:48:12;98727.47;;;9.74;81.23
19108;BME280;9686;48.832;9.126;2023-02-01T08:50:37;98735.28;;;9.77;81.29
19108;BME280;9686;48.832;9.126;2023-02-01T08:53:02;98729.22;;;9.78;81.42
19108;BME280;9686;48.832;9.126;2023-02-01T08:55:28;98738.75;;;9.77;82.38
19108;BME280;9686;48.832;9.126;2023-02-01T08:57:53;98731.78;;;9.70;83.10
19108;BME280;9686;48.832;9.126;2023-02-01T09:00:19;98737.91;;;9.83;81.53
19108;BME280;9686;48.832;9.126;2023-02-01T09:02:44;98744.88;;;9.88;81.78
19108;BME280;9686;48.832;9.126;2023-02-01T09:05:10;98746.53;;;9.73;82.49
19108;BME280;9686;48.832;9.126;2023-02-01T09:07:36;98747.41;;;9.70;83.94
19108;BME280;9686;48.832;9.126;2023-02-01T09:10:02;98759.41;;;9.50;86.02
19108;BME280;9686;48.832;9.126;2023-02-01T09:12:29;98766.41;;;9.60;85.34
19108;BME280;9686;48.832;9.126;2023-02-01T09:14:57;98761.13;;;9.45;87.99
19108;BME280;9686;48.832;9.126;2023-02-01T09:17:25;98776.63;;;9.36;89.70
19108;BME280;9686;48.832;9.126;2023-02-01T09:19:51;98772.44;;;9.51;88.92
19108;BME280;9686;48.832;9.126;2023-02-01T09:22:16;98758.59;;;9.57;87.67
19108;BME280;9686;48.832;9.126;2023-02-01T09:24:42;98765.41;;;9.38;87.45
19108;BME280;9686;48.832;9.126;2023-02-01T09:27:07;98771.72;;;9.72;86.50
19108;BME280;9686;48.832;9.126;2023-02-01T09:29:32;98778.69;;;9.81;83.96
19108;BME280;9686;48.832;9.126;2023-02-01T09:31:57;98785.66;;;9.85;85.08
19108;BME280;9686;48.832;9.126;2023-02-01T09:34:23;98777.91;;;9.89;82.78
19108;BME280;9686;48.832;9.126;2023-02-01T09:36:48;98773.59;;;9.96;82.42
19108;BME280;9686;48.832;9.126;2023-02-01T09:39:13;98774.47;;;10.03;81.57
19108;BME280;9686;48.832;9.126;2023-02-01T09:44:43;98778.81;;;9.96;80.05
19108;BME280;9686;48.832;9.126;2023-02-01T09:47:12;98784.06;;;10.10;78.39
19108;BME280;9686;48.832;9.126;2023-02-01T09:49:56;98779.66;;;9.95;77.71
19108;BME280;9686;48.832;9.126;2023-02-01T09:52:29;98791.00;;;10.05;80.17
19108;BME280;9686;48.832;9.126;2023-02-01T09:55:01;98789.28;;;10.10;77.69
19108;BME280;9686;48.832;9.126;2023-02-01T09:58:00;98798.75;;;9.94;76.06
19108;BME280;9686;48.832;9.126;2023-02-01T10:00:31;98790.09;;;10.01;76.13
19108;BME280;9686;48.832;9.126;2023-02-01T10:02:58;98794.47;;;10.04;76.81
19108;BME280;9686;48.832;9.126;2023-02-01T10:10:50;98804.88;;;10.07;72.72
19108;BME280;9686;48.832;9.126;2023-02-01T10:16:14;98800.53;;;10.06;71.68
19108;BME280;9686;48.832;9.126;2023-02-01T10:21:37;98802.25;;;9.98;73.23
19108;BME280;9686;48.832;9.126;2023-02-01T10:27:20;98798.16;;;10.44;70.30
19108;BME280;9686;48.832;9.126;2023-02-01T10:29:51;98811.13;;;10.32;69.49
19108;BME280;9686;48.832;9.126;2023-02-01T10:32:27;98825.91;;;10.36;69.19
19108;BME280;9686;48.832;9.126;2023-02-01T10:34:59;98820.50;;;10.02;69.99
19108;BME280;9686;48.832;9.126;2023-02-01T10:39:53;98823.13;;;10.07;69.10
19108;BME280;9686;48.832;9.126;2023-02-01T10:42:23;98815.44;;;10.24;68.40
19108;BME280;9686;48.832;9.126;2023-02-01T10:44:49;98815.31;;;10.11;68.98
19108;BME280;9686;48.832;9.126;2023-02-01T10:47:15;98830.16;;;10.15;68.92
19108;BME280;9686;48.832;9.126;2023-02-01T10:52:36;98818.00;;;10.16;68.28
19108;BME280;9686;48.832;9.126;2023-02-01T10:55:29;98815.50;;;10.36;67.58
19108;BME280;9686;48.832;9.126;2023-02-01T10:58:01;98807.63;;;10.22;67.92
19108;BME280;9686;48.832;9.126;2023-02-01T11:00:28;98810.25;;;10.30;66.70
19108;BME280;9686;48.832;9.126;2023-02-01T11:02:58;98811.13;;;10.29;66.49
19108;BME280;9686;48.832;9.126;2023-02-01T11:05:24;98803.22;;;10.15;66.08
19108;BME280;9686;48.832;9.126;2023-02-01T11:07:53;98797.94;;;10.09;66.27
19108;BME280;9686;48.832;9.126;2023-02-01T11:10:57;98793.59;;;10.05;66.17
19108;BME280;9686;48.832;9.126;2023-02-01T11:13:28;98800.56;;;10.07;65.63
19108;BME280;9686;48.832;9.126;2023-02-01T11:15:55;98792.00;;;10.27;65.26
19108;BME280;9686;48.832;9.126;2023-02-01T11:18:29;98799.84;;;10.30;65.20
19108;BME280;9686;48.832;9.126;2023-02-01T11:20:55;98794.66;;;10.36;64.39
19108;BME280;9686;48.832;9.126;2023-02-01T11:23:31;98778.91;;;10.16;65.19
19108;BME280;9686;48.832;9.126;2023-02-01T11:26:00;98777.97;;;10.08;65.55
19108;BME280;9686;48.832;9.126;2023-02-01T11:28:30;98779.84;;;10.30;65.02
19108;BME280;9686;48.832;9.126;2023-02-01T11:31:00;98776.41;;;10.36;64.31
19108;BME280;9686;48.832;9.126;2023-02-01T11:33:34;98783.31;;;10.25;64.32
19108;BME280;9686;48.832;9.126;2023-02-01T11:36:07;98770.28;;;10.28;65.02
19108;BME280;9686;48.832;9.126;2023-02-01T11:38:34;98757.28;;;10.37;63.11
19108;BME280;9686;48.832;9.126;2023-02-01T11:41:25;98753.88;;;10.52;62.22
19108;BME280;9686;48.832;9.126;2023-02-01T11:43:59;98745.19;;;10.51;63.30
19108;BME280;9686;48.832;9.126;2023-02-01T11:46:33;98742.59;;;10.57;62.07
19108;BME280;9686;48.832;9.126;2023-02-01T11:49:21;98731.28;;;10.44;62.26
19108;BME280;9686;48.832;9.126;2023-02-01T11:58:14;98723.53;;;10.82;60.93
19108;BME280;9686;48.832;9.126;2023-02-01T12:00:58;98729.53;;;10.49;59.00
19108;BME280;9686;48.832;9.126;2023-02-01T12:05:59;98718.19;;;10.34;58.77
19108;BME280;9686;48.832;9.126;2023-02-01T12:38:44;98728.47;;;10.06;61.62
19108;BME280;9686;48.832;9.126;2023-02-01T12:44:41;98729.34;;;10.07;68.20
19108;BME280;9686;48.832;9.126;2023-02-01T12:47:29;98729.34;;;10.04;65.59
19108;BME280;9686;48.832;9.126;2023-02-01T12:50:06;98727.59;;;9.97;64.38
19108;BME280;9686;48.832;9.126;2023-02-01T12:52:43;98738.00;;;10.00;64.93
19108;BME280;9686;48.832;9.126;2023-02-01T12:58:06;98741.22;;;9.56;69.42
19108;BME280;9686;48.832;9.126;2023-02-01T13:00:42;98737.81;;;9.63;71.58
19108;BME280;9686;48.832;9.126;2023-02-01T13:06:15;98710.81;;;9.46;74.93
19108;BME280;9686;48.832;9.126;2023-02-01T13:08:51;98724.81;;;9.65;75.74
19108;BME280;9686;48.832;9.126;2023-02-01T13:11:34;98729.19;;;9.75;76.28
19108;BME280;9686;48.832;9.126;2023-02-01T13:17:05;98719.66;;;9.80;73.59
19108;BME280;9686;48.832;9.126;2023-02-01T13:19:45;98705.00;;;9.91;71.29
19108;BME280;9686;48.832;9.126;2023-02-01T13:24:56;98711.00;;;9.81;68.83
19108;BME280;9686;48.832;9.126;2023-02-01T13:27:22;98696.25;;;9.86;68.87
19108;BME280;9686;48.832;9.126;2023-02-01T13:30:00;98697.13;;;9.82;68.98
19108;BME280;9686;48.832;9.126;2023-02-01T13:32:57;98692.84;;;9.98;67.46
19108;BME280;9686;48.832;9.126;2023-02-01T13:41:42;98696.31;;;9.92;67.10
19108;BME280;9686;48.832;9.126;2023-02-01T13:44:36;98688.44;;;9.86;68.34
19108;BME280;9686;48.832;9.126;2023-02-01T13:47:13;98691.97;;;9.89;68.13
19108;BME280;9686;48.832;9.126;2023-02-01T13:49:42;98697.06;;;9.71;68.90
19108;BME280;9686;48.832;9.126;2023-02-01T13:52:24;98688.44;;;9.86;69.29
19108;BME280;9686;48.832;9.126;2023-02-01T13:55:01;98685.81;;;9.75;70.40
19108;BME280;9686;48.832;9.126;2023-02-01T13:57:41;98683.13;;;9.62;72.15
19108;BME280;9686;48.832;9.126;2023-02-01T14:00:37;98684.06;;;9.74;74.30
19108;BME280;9686;48.832;9.126;2023-02-01T14:11:51;98669.31;;;9.69;72.99
19108;BME280;9686;48.832;9.126;2023-02-01T14:16:43;98665.81;;;9.64;71.09
19108;BME280;9686;48.832;9.126;2023-02-01T14:21:51;98670.19;;;9.72;70.33
19108;BME280;9686;48.832;9.126;2023-02-01T14:24:30;98674.41;;;9.53;71.08
19108;BME280;9686;48.832;9.126;2023-02-01T14:26:59;98664.91;;;9.60;70.26
19108;BME280;9686;48.832;9.126;2023-02-01T14:29:50;98685.69;;;9.57;69.21
19108;BME280;9686;48.832;9.126;2023-02-01T14:32:21;98684.03;;;9.65;68.94
19108;BME280;9686;48.832;9.126;2023-02-01T14:47:51;98684.81;;;9.52;69.86
19108;BME280;9686;48.832;9.126;2023-02-01T14:50:27;98696.06;;;9.45;69.67
19108;BME280;9686;48.832;9.126;2023-02-01T14:55:49;98696.03;;;9.42;71.92
19108;BME280;9686;48.832;9.126;2023-02-01T15:00:54;98709.03;;;9.40;72.70
19108;BME280;9686;48.832;9.126;2023-02-01T15:03:41;98703.00;;;9.44;73.14
19108;BME280;9686;48.832;9.126;2023-02-01T15:06:38;98696.97;;;9.57;72.30
19108;BME280;9686;48.832;9.126;2023-02-01T15:09:28;98692.50;;;9.35;71.65
19108;BME280;9686;48.832;9.126;2023-02-01T15:14:30;98683.94;;;9.50;70.04
19108;BME280;9686;48.832;9.126;2023-02-01T15:16:56;98685.66;;;9.49;70.08
19108;BME280;9686;48.832;9.126;2023-02-01T15:19:23;98700.38;;;9.41;70.42
19108;BME280;9686;48.832;9.126;2023-02-01T15:21:56;98690.75;;;9.31;69.37
19108;BME280;9686;48.832;9.126;2023-02-01T15:24:24;98692.59;;;9.49;70.33
19108;BME280;9686;48.832;9.126;2023-02-01T15:26:52;98704.78;;;9.56;69.44
19108;BME280;9686;48.832;9.126;2023-02-01T15:29:20;98703.84;;;9.40;69.89
19108;BME280;9686;48.832;9.126;2023-02-01T15:31:49;98719.53;;;9.55;69.56
19108;BME280;9686;48.832;9.126;2023-02-01T15:34:15;98712.69;;;9.68;69.36
19108;BME280;9686;48.832;9.126;2023-02-01T15:36:41;98719.66;;;9.74;69.08
19108;BME280;9686;48.832;9.126;2023-02-01T15:39:21;98711.84;;;9.72;67.43
19108;BME280;9686;48.832;9.126;2023-02-01T15:44:34;98711.72;;;9.57;68.62
19108;BME280;9686;48.832;9.126;2023-02-01T15:47:13;98729.16;;;9.64;67.92
19108;BME280;9686;48.832;9.126;2023-02-01T15:49:41;98723.91;;;9.61;68.33
19108;BME280;9686;48.832;9.126;2023-02-01T15:52:36;98728.34;;;9.76;67.92
19108;BME280;9686;48.832;9.126;2023-02-01T15:55:05;98731.84;;;9.82;66.65
19108;BME280;9686;48.832;9.126;2023-02-01T15:57:35;98728.22;;;9.56;68.69
19108;BME280;9686;48.832;9.126;2023-02-01T16:05:38;98729.16;;;9.67;65.68
19108;BME280;9686;48.832;9.126;2023-02-01T16:08:22;98729.19;;;9.70;65.27
19108;BME280;9686;48.832;9.126;2023-02-01T16:10:49;98718.75;;;9.64;64.12